sensor_id;sensor_type;location;lat;lon;timestamp;temperature;humidity
2407;DHT22;37709;53.480;9.688;2024-02-14T00:00:47;4.70;99.90
2407;DHT22;37709;53.480;9.688;2024-02-14T00:03:14;4.70;99.90
2407;DHT22;37709;53.480;9.688;2024-02-14T00:05:41;4.80;99.90
2407;DHT22;37709;53.480;9.688;2024-02-14T00:08:09;4.70;99.90
2407;DHT22;37709;53.480;9.688;2024-02-14T00:10:37;4.80;99.90
2407;DHT22;37709;53.480;9.688;2024-02-14T00:13:04;4.90;99.90
2407;DHT22;37709;53.480;9.688;2024-02-14T00:15:33;4.90;99.90
2407;DHT22;37709;53.480;9.688;2024-02-14T00:18:00;5.00;99.90
2407;DHT22;37709;53.480;9.688;2024-02-14T00:20:28;5.00;99.90
2407;DHT22;37709;53.480;9.688;2024-02-14T00:23:00;5.00;99.90
2407;DHT22;37709;53.480;9.688;2024-02-14T00:25:29;5.00;99.90
2407;DHT22;37709;53.480;9.688;2024-02-14T00:27:57;5.00;99.90
2407;DHT22;37709;53.480;9.688;2024-02-14T00:30:27;5.00;99.90
2407;DHT22;37709;53.480;9.688;2024-02-14T00:33:15;5.00;99.90
2407;DHT22;37709;53.480;9.688;2024-02-14T00:35:44;5.10;99.90
2407;DHT22;37709;53.480;9.688;2024-02-14T00:38:11;5.10;99.90
2407;DHT22;37709;53.480;9.688;2024-02-14T00:40:38;5.20;99.90
2407;DHT22;37709;53.480;9.688;2024-02-14T00:43:06;5.20;99.90
2407;DHT22;37709;53.480;9.688;2024-02-14T00:45:33;5.20;99.90
2407;DHT22;37709;53.480;9.688;2024-02-14T00:48:01;5.30;99.90
2407;DHT22;37709;53.480;9.688;2024-02-14T00:50:31;5.30;99.90
2407;DHT22;37709;53.480;9.688;2024-02-14T00:52:58;5.30;99.90
2407;DHT22;37709;53.480;9.688;2024-02-14T00:55:25;5.30;99.90
2407;DHT22;37709;53.480;9.688;2024-02-14T00:57:53;5.20;99.90
2407;DHT22;37709;53.480;9.688;2024-02-14T01:00:21;5.20;99.90
2407;DHT22;37709;53.480;9.688;2024-02-14T01:02:50;5.10;99.90
2407;DHT22;37709;53.480;9.688;2024-02-14T01:05:18;5.00;99.90
2407;DHT22;37709;53.480;9.688;2024-02-14T01:07:46;4.90;99.90
2407;DHT22;37709;53.480;9.688;2024-02-14T01:10:13;4.80;99.90
2407;DHT22;37709;53.480;9.688;2024-02-14T01:12:41;4.80;99.90
2407;DHT22;37709;53.480;9.688;2024-02-14T01:15:08;4.80;99.90
2407;DHT22;37709;53.480;9.688;2024-02-14T01:17:36;4.80;99.90
2407;DHT22;37709;53.480;9.688;2024-02-14T01:20:06;4.70;99.90
2407;DHT22;37709;53.480;9.688;2024-02-14T01:22:35;4.70;99.90
2407;DHT22;37709;53.480;9.688;2024-02-14T01:25:10;4.70;99.90
2407;DHT22;37709;53.480;9.688;2024-02-14T01:27:40;4.60;99.90
2407;DHT22;37709;53.480;9.688;2024-02-14T01:30:09;4.60;99.90
2407;DHT22;37709;53.480;9.688;2024-02-14T01:32:37;4.60;99.90
2407;DHT22;37709;53.480;9.688;2024-02-14T01:35:06;4.60;99.90
2407;DHT22;37709;53.480;9.688;2024-02-14T01:37:35;4.50;99.90
2407;DHT22;37709;53.480;9.688;2024-02-14T01:40:02;4.50;99.90
2407;DHT22;37709;53.480;9.688;2024-02-14T01:42:34;4.60;99.90
2407;DHT22;37709;53.480;9.688;2024-02-14T01:45:01;4.50;99.90
2407;DHT22;37709;53.480;9.688;2024-02-14T01:47:36;4.50;99.90
2407;DHT22;37709;53.480;9.688;2024-02-14T01:50:06;4.60;99.90
2407;DHT22;37709;53.480;9.688;2024-02-14T01:52:35;4.60;99.90
2407;DHT22;37709;53.480;9.688;2024-02-14T01:55:05;4.50;99.90
2407;DHT22;37709;53.480;9.688;2024-02-14T01:57:34;4.50;99.90
2407;DHT22;37709;53.480;9.688;2024-02-14T02:00:03;4.50;99.90
2407;DHT22;37709;53.480;9.688;2024-02-14T02:02:39;4.50;99.90
2407;DHT22;37709;53.480;9.688;2024-02-14T02:05:13;4.50;99.90
2407;DHT22;37709;53.480;9.688;2024-02-14T02:07:41;4.50;99.90
2407;DHT22;37709;53.480;9.688;2024-02-14T02:10:10;4.50;99.90
2407;DHT22;37709;53.480;9.688;2024-02-14T02:12:42;4.40;99.90
2407;DHT22;37709;53.480;9.688;2024-02-14T02:15:29;4.50;99.90
2407;DHT22;37709;53.480;9.688;2024-02-14T02:18:16;4.50;99.90
2407;DHT22;37709;53.480;9.688;2024-02-14T02:21:04;4.40;99.90
2407;DHT22;37709;53.480;9.688;2024-02-14T02:23:34;4.40;99.90
2407;DHT22;37709;53.480;9.688;2024-02-14T02:26:03;4.40;99.90
2407;DHT22;37709;53.480;9.688;2024-02-14T02:28:50;4.40;99.90
2407;DHT22;37709;53.480;9.688;2024-02-14T02:31:19;4.40;99.90
2407;DHT22;37709;53.480;9.688;2024-02-14T02:33:47;4.40;99.90
2407;DHT22;37709;53.480;9.688;2024-02-14T02:36:15;4.40;99.90
2407;DHT22;37709;53.480;9.688;2024-02-14T02:39:03;4.40;99.90
2407;DHT22;37709;53.480;9.688;2024-02-14T02:41:51;4.40;99.90
2407;DHT22;37709;53.480;9.688;2024-02-14T02:44:57;4.40;99.90
2407;DHT22;37709;53.480;9.688;2024-02-14T02:47:47;4.40;99.90
2407;DHT22;37709;53.480;9.688;2024-02-14T02:50:35;4.40;99.90
2407;DHT22;37709;53.480;9.688;2024-02-14T02:53:24;4.40;99.90
2407;DHT22;37709;53.480;9.688;2024-02-14T02:56:11;4.40;99.90
2407;DHT22;37709;53.480;9.688;2024-02-14T02:58:39;4.40;99.90
2407;DHT22;37709;53.480;9.688;2024-02-14T03:01:10;4.30;99.90
2407;DHT22;37709;53.480;9.688;2024-02-14T03:03:59;4.40;99.90
2407;DHT22;37709;53.480;9.688;2024-02-14T03:06:47;4.30;99.90
2407;DHT22;37709;53.480;9.688;2024-02-14T03:09:24;4.40;99.90
2407;DHT22;37709;53.480;9.688;2024-02-14T03:12:13;4.40;99.90
2407;DHT22;37709;53.480;9.688;2024-02-14T03:15:04;4.30;99.90
2407;DHT22;37709;53.480;9.688;2024-02-14T03:17:35;4.30;99.90
2407;DHT22;37709;53.480;9.688;2024-02-14T03:20:03;4.30;99.90
2407;DHT22;37709;53.480;9.688;2024-02-14T03:22:41;4.40;99.90
2407;DHT22;37709;53.480;9.688;2024-02-14T03:25:18;4.40;99.90
2407;DHT22;37709;53.480;9.688;2024-02-14T03:27:54;4.40;99.90
2407;DHT22;37709;53.480;9.688;2024-02-14T03:30:22;4.40;99.90
2407;DHT22;37709;53.480;9.688;2024-02-14T03:32:50;4.40;99.90
2407;DHT22;37709;53.480;9.688;2024-02-14T03:35:19;4.40;99.90
2407;DHT22;37709;53.480;9.688;2024-02-14T03:37:49;4.50;99.90
2407;DHT22;37709;53.480;9.688;2024-02-14T03:40:19;4.40;99.90
2407;DHT22;37709;53.480;9.688;2024-02-14T03:42:49;4.50;99.90
2407;DHT22;37709;53.480;9.688;2024-02-14T03:45:18;4.50;99.90
2407;DHT22;37709;53.480;9.688;2024-02-14T03:47:45;4.50;99.90
2407;DHT22;37709;53.480;9.688;2024-02-14T03:50:13;4.50;99.90
2407;DHT22;37709;53.480;9.688;2024-02-14T03:52:40;4.60;99.90
2407;DHT22;37709;53.480;9.688;2024-02-14T03:55:09;4.50;99.90
2407;DHT22;37709;53.480;9.688;2024-02-14T03:57:40;4.60;99.90
2407;DHT22;37709;53.480;9.688;2024-02-14T04:00:08;4.60;99.90
2407;DHT22;37709;53.480;9.688;2024-02-14T04:02:39;4.60;99.90
2407;DHT22;37709;53.480;9.688;2024-02-14T04:05:08;4.60;99.90
2407;DHT22;37709;53.480;9.688;2024-02-14T04:07:37;4.60;99.90
2407;DHT22;37709;53.480;9.688;2024-02-14T04:10:06;4.60;99.90
2407;DHT22;37709;53.480;9.688;2024-02-14T04:12:35;4.60;99.90
2407;DHT22;37709;53.480;9.688;2024-02-14T04:15:02;4.60;99.90
2407;DHT22;37709;53.480;9.688;2024-02-14T04:17:41;4.70;99.90
2407;DHT22;37709;53.480;9.688;2024-02-14T04:20:10;4.60;99.90
2407;DHT22;37709;53.480;9.688;2024-02-14T04:22:37;4.70;99.90
2407;DHT22;37709;53.480;9.688;2024-02-14T04:25:07;4.70;99.90
2407;DHT22;37709;53.480;9.688;2024-02-14T04:27:34;4.70;99.90
2407;DHT22;37709;53.480;9.688;2024-02-14T04:30:02;4.70;99.90
2407;DHT22;37709;53.480;9.688;2024-02-14T04:32:34;4.70;99.90
2407;DHT22;37709;53.480;9.688;2024-02-14T04:35:02;4.70;99.90
2407;DHT22;37709;53.480;9.688;2024-02-14T04:37:30;4.70;99.90
2407;DHT22;37709;53.480;9.688;2024-02-14T04:39:58;4.70;99.90
2407;DHT22;37709;53.480;9.688;2024-02-14T04:42:27;4.70;99.90
2407;DHT22;37709;53.480;9.688;2024-02-14T04:45:20;4.70;99.90
2407;DHT22;37709;53.480;9.688;2024-02-14T04:47:57;4.70;99.90
2407;DHT22;37709;53.480;9.688;2024-02-14T04:50:25;4.70;99.90
2407;DHT22;37709;53.480;9.688;2024-02-14T04:52:52;4.70;99.90
2407;DHT22;37709;53.480;9.688;2024-02-14T04:55:20;4.70;99.90
2407;DHT22;37709;53.480;9.688;2024-02-14T04:57:48;4.80;99.90
2407;DHT22;37709;53.480;9.688;2024-02-14T05:00:16;4.80;99.90
2407;DHT22;37709;53.480;9.688;2024-02-14T05:02:45;4.80;99.90
2407;DHT22;37709;53.480;9.688;2024-02-14T05:05:13;4.80;99.90
2407;DHT22;37709;53.480;9.688;2024-02-14T05:07:52;4.80;99.90
2407;DHT22;37709;53.480;9.688;2024-02-14T05:10:21;4.80;99.90
2407;DHT22;37709;53.480;9.688;2024-02-14T05:12:49;4.90;99.90
2407;DHT22;37709;53.480;9.688;2024-02-14T05:15:16;4.90;99.90
2407;DHT22;37709;53.480;9.688;2024-02-14T05:17:44;4.90;99.90
2407;DHT22;37709;53.480;9.688;2024-02-14T05:20:13;4.90;99.90
2407;DHT22;37709;53.480;9.688;2024-02-14T05:22:41;4.90;99.90
2407;DHT22;37709;53.480;9.688;2024-02-14T05:25:09;4.90;99.90
2407;DHT22;37709;53.480;9.688;2024-02-14T05:27:51;4.90;99.90
2407;DHT22;37709;53.480;9.688;2024-02-14T05:30:18;5.00;99.90
2407;DHT22;37709;53.480;9.688;2024-02-14T05:32:51;5.00;99.90
2407;DHT22;37709;53.480;9.688;2024-02-14T05:35:21;5.00;99.90
2407;DHT22;37709;53.480;9.688;2024-02-14T05:37:49;5.00;99.90
2407;DHT22;37709;53.480;9.688;2024-02-14T05:40:22;5.00;99.90
2407;DHT22;37709;53.480;9.688;2024-02-14T05:42:50;5.00;99.90
2407;DHT22;37709;53.480;9.688;2024-02-14T05:45:17;5.10;99.90
2407;DHT22;37709;53.480;9.688;2024-02-14T05:47:45;5.10;99.90
2407;DHT22;37709;53.480;9.688;2024-02-14T05:50:13;5.10;99.90
2407;DHT22;37709;53.480;9.688;2024-02-14T05:52:40;5.20;99.90
2407;DHT22;37709;53.480;9.688;2024-02-14T05:55:09;5.20;99.90
2407;DHT22;37709;53.480;9.688;2024-02-14T05:57:51;5.20;99.90
2407;DHT22;37709;53.480;9.688;2024-02-14T06:00:21;5.20;99.90
2407;DHT22;37709;53.480;9.688;2024-02-14T06:02:55;5.20;99.90
2407;DHT22;37709;53.480;9.688;2024-02-14T06:05:26;5.30;99.90
2407;DHT22;37709;53.480;9.688;2024-02-14T06:07:53;5.30;99.90
2407;DHT22;37709;53.480;9.688;2024-02-14T06:10:21;5.30;99.90
2407;DHT22;37709;53.480;9.688;2024-02-14T06:12:48;5.30;99.90
2407;DHT22;37709;53.480;9.688;2024-02-14T06:15:16;5.30;99.90
2407;DHT22;37709;53.480;9.688;2024-02-14T06:17:44;5.30;99.90
2407;DHT22;37709;53.480;9.688;2024-02-14T06:20:11;5.30;99.90
2407;DHT22;37709;53.480;9.688;2024-02-14T06:22:40;5.30;99.90
2407;DHT22;37709;53.480;9.688;2024-02-14T06:25:19;5.40;99.90
2407;DHT22;37709;53.480;9.688;2024-02-14T06:27:57;5.40;99.90
2407;DHT22;37709;53.480;9.688;2024-02-14T06:30:24;5.40;99.90
2407;DHT22;37709;53.480;9.688;2024-02-14T06:32:56;5.40;99.90
2407;DHT22;37709;53.480;9.688;2024-02-14T06:35:28;5.50;99.90
2407;DHT22;37709;53.480;9.688;2024-02-14T06:38:22;5.50;99.90
2407;DHT22;37709;53.480;9.688;2024-02-14T06:40:49;5.60;99.90
2407;DHT22;37709;53.480;9.688;2024-02-14T06:43:17;5.60;99.90
2407;DHT22;37709;53.480;9.688;2024-02-14T06:45:45;5.60;99.90
2407;DHT22;37709;53.480;9.688;2024-02-14T06:48:48;5.60;99.90
2407;DHT22;37709;53.480;9.688;2024-02-14T06:51:16;5.70;99.90
2407;DHT22;37709;53.480;9.688;2024-02-14T06:53:43;5.70;99.90
2407;DHT22;37709;53.480;9.688;2024-02-14T06:56:11;5.70;99.90
2407;DHT22;37709;53.480;9.688;2024-02-14T06:58:41;5.80;99.90
2407;DHT22;37709;53.480;9.688;2024-02-14T07:01:08;5.80;99.90
2407;DHT22;37709;53.480;9.688;2024-02-14T07:04:04;5.80;99.90
2407;DHT22;37709;53.480;9.688;2024-02-14T07:06:32;5.90;99.90
2407;DHT22;37709;53.480;9.688;2024-02-14T07:08:59;5.90;99.90
2407;DHT22;37709;53.480;9.688;2024-02-14T07:11:26;5.90;99.90
2407;DHT22;37709;53.480;9.688;2024-02-14T07:13:56;5.90;99.90
2407;DHT22;37709;53.480;9.688;2024-02-14T07:16:48;6.00;99.90
2407;DHT22;37709;53.480;9.688;2024-02-14T07:19:16;6.00;99.90
2407;DHT22;37709;53.480;9.688;2024-02-14T07:21:44;6.00;99.90
2407;DHT22;37709;53.480;9.688;2024-02-14T07:24:13;6.10;99.90
2407;DHT22;37709;53.480;9.688;2024-02-14T07:26:40;6.10;99.90
2407;DHT22;37709;53.480;9.688;2024-02-14T07:29:09;6.10;99.90
2407;DHT22;37709;53.480;9.688;2024-02-14T07:31:36;6.10;99.90
2407;DHT22;37709;53.480;9.688;2024-02-14T07:34:04;6.20;99.90
2407;DHT22;37709;53.480;9.688;2024-02-14T07:36:36;6.20;99.90
2407;DHT22;37709;53.480;9.688;2024-02-14T07:39:04;6.30;99.90
2407;DHT22;37709;53.480;9.688;2024-02-14T07:41:32;6.30;99.90
2407;DHT22;37709;53.480;9.688;2024-02-14T07:43:59;6.40;99.90
2407;DHT22;37709;53.480;9.688;2024-02-14T07:46:27;6.40;99.90
2407;DHT22;37709;53.480;9.688;2024-02-14T07:48:54;6.40;99.90
2407;DHT22;37709;53.480;9.688;2024-02-14T07:51:23;6.50;99.90
2407;DHT22;37709;53.480;9.688;2024-02-14T07:53:50;6.60;99.90
2407;DHT22;37709;53.480;9.688;2024-02-14T07:56:18;6.60;99.90
2407;DHT22;37709;53.480;9.688;2024-02-14T07:58:46;6.70;99.90
2407;DHT22;37709;53.480;9.688;2024-02-14T08:01:13;6.80;99.90
2407;DHT22;37709;53.480;9.688;2024-02-14T08:03:41;6.80;99.90
2407;DHT22;37709;53.480;9.688;2024-02-14T08:06:33;6.80;99.90
2407;DHT22;37709;53.480;9.688;2024-02-14T08:09:02;6.90;99.90
2407;DHT22;37709;53.480;9.688;2024-02-14T08:11:33;6.90;99.90
2407;DHT22;37709;53.480;9.688;2024-02-14T08:14:02;6.90;99.90
2407;DHT22;37709;53.480;9.688;2024-02-14T08:16:33;7.00;99.90
2407;DHT22;37709;53.480;9.688;2024-02-14T08:19:01;7.00;99.90
2407;DHT22;37709;53.480;9.688;2024-02-14T08:21:30;7.00;99.90
2407;DHT22;37709;53.480;9.688;2024-02-14T08:23:59;7.10;99.90
2407;DHT22;37709;53.480;9.688;2024-02-14T08:26:28;7.10;99.90
2407;DHT22;37709;53.480;9.688;2024-02-14T08:28:57;7.10;99.90
2407;DHT22;37709;53.480;9.688;2024-02-14T08:31:25;7.10;99.90
2407;DHT22;37709;53.480;9.688;2024-02-14T08:33:52;7.10;99.90
2407;DHT22;37709;53.480;9.688;2024-02-14T08:36:21;7.20;99.90
2407;DHT22;37709;53.480;9.688;2024-02-14T08:38:50;7.20;99.90
2407;DHT22;37709;53.480;9.688;2024-02-14T08:41:18;7.30;99.90
2407;DHT22;37709;53.480;9.688;2024-02-14T08:43:46;7.30;99.90
2407;DHT22;37709;53.480;9.688;2024-02-14T08:46:14;7.40;99.90
2407;DHT22;37709;53.480;9.688;2024-02-14T08:48:45;7.50;99.90
2407;DHT22;37709;53.480;9.688;2024-02-14T08:51:16;7.60;99.90
2407;DHT22;37709;53.480;9.688;2024-02-14T08:53:44;7.70;99.90
2407;DHT22;37709;53.480;9.688;2024-02-14T08:56:17;7.80;99.90
2407;DHT22;37709;53.480;9.688;2024-02-14T08:58:46;7.90;99.90
2407;DHT22;37709;53.480;9.688;2024-02-14T09:01:15;7.90;99.90
2407;DHT22;37709;53.480;9.688;2024-02-14T09:03:43;8.00;99.90
2407;DHT22;37709;53.480;9.688;2024-02-14T09:06:40;8.10;99.90
2407;DHT22;37709;53.480;9.688;2024-02-14T09:09:08;8.30;99.90
2407;DHT22;37709;53.480;9.688;2024-02-14T09:11:38;8.30;99.90
2407;DHT22;37709;53.480;9.688;2024-02-14T09:14:05;8.50;99.90
2407;DHT22;37709;53.480;9.688;2024-02-14T09:16:34;8.80;99.90
2407;DHT22;37709;53.480;9.688;2024-02-14T09:19:03;9.20;99.90
2407;DHT22;37709;53.480;9.688;2024-02-14T09:21:34;9.30;99.90
2407;DHT22;37709;53.480;9.688;2024-02-14T09:24:04;9.20;99.90
2407;DHT22;37709;53.480;9.688;2024-02-14T09:26:32;9.10;99.90
2407;DHT22;37709;53.480;9.688;2024-02-14T09:28:59;9.00;99.90
2407;DHT22;37709;53.480;9.688;2024-02-14T09:31:28;8.80;99.90
2407;DHT22;37709;53.480;9.688;2024-02-14T09:33:56;8.80;99.90
2407;DHT22;37709;53.480;9.688;2024-02-14T09:36:25;8.80;99.90
2407;DHT22;37709;53.480;9.688;2024-02-14T09:38:53;8.90;99.90
2407;DHT22;37709;53.480;9.688;2024-02-14T09:41:25;9.10;99.90
2407;DHT22;37709;53.480;9.688;2024-02-14T09:43:57;9.30;99.90
2407;DHT22;37709;53.480;9.688;2024-02-14T09:46:24;9.40;99.90
2407;DHT22;37709;53.480;9.688;2024-02-14T09:48:55;9.60;99.90
2407;DHT22;37709;53.480;9.688;2024-02-14T09:51:24;9.60;99.90
2407;DHT22;37709;53.480;9.688;2024-02-14T09:53:54;9.40;99.90
2407;DHT22;37709;53.480;9.688;2024-02-14T09:56:22;9.30;99.90
2407;DHT22;37709;53.480;9.688;2024-02-14T09:58:50;9.30;99.90
2407;DHT22;37709;53.480;9.688;2024-02-14T10:01:24;9.40;99.90
2407;DHT22;37709;53.480;9.688;2024-02-14T10:03:52;9.70;99.90
2407;DHT22;37709;53.480;9.688;2024-02-14T10:06:21;9.60;99.90
2407;DHT22;37709;53.480;9.688;2024-02-14T10:08:49;9.70;99.90
2407;DHT22;37709;53.480;9.688;2024-02-14T10:11:32;9.70;99.90
2407;DHT22;37709;53.480;9.688;2024-02-14T10:14:02;9.80;99.90
2407;DHT22;37709;53.480;9.688;2024-02-14T10:16:36;9.90;99.90
2407;DHT22;37709;53.480;9.688;2024-02-14T10:19:04;10.10;99.90
2407;DHT22;37709;53.480;9.688;2024-02-14T10:21:40;10.10;99.90
2407;DHT22;37709;53.480;9.688;2024-02-14T10:24:11;9.90;99.90
2407;DHT22;37709;53.480;9.688;2024-02-14T10:26:40;9.90;99.90
2407;DHT22;37709;53.480;9.688;2024-02-14T10:29:11;10.00;99.90
2407;DHT22;37709;53.480;9.688;2024-02-14T10:31:40;10.00;99.90
2407;DHT22;37709;53.480;9.688;2024-02-14T10:34:13;9.90;99.90
2407;DHT22;37709;53.480;9.688;2024-02-14T10:36:42;10.00;99.90
2407;DHT22;37709;53.480;9.688;2024-02-14T10:39:13;10.20;99.90
2407;DHT22;37709;53.480;9.688;2024-02-14T10:41:43;10.30;99.90
2407;DHT22;37709;53.480;9.688;2024-02-14T10:44:10;10.20;99.90
2407;DHT22;37709;53.480;9.688;2024-02-14T10:46:44;10.30;99.90
2407;DHT22;37709;53.480;9.688;2024-02-14T10:49:16;10.30;99.90
2407;DHT22;37709;53.480;9.688;2024-02-14T10:51:45;10.20;99.90
2407;DHT22;37709;53.480;9.688;2024-02-14T10:54:41;10.20;99.90
2407;DHT22;37709;53.480;9.688;2024-02-14T10:57:11;10.10;99.90
2407;DHT22;37709;53.480;9.688;2024-02-14T10:59:43;10.00;99.90
2407;DHT22;37709;53.480;9.688;2024-02-14T11:02:12;10.00;99.90
2407;DHT22;37709;53.480;9.688;2024-02-14T11:04:40;10.10;99.90
2407;DHT22;37709;53.480;9.688;2024-02-14T11:07:10;10.20;99.90
2407;DHT22;37709;53.480;9.688;2024-02-14T11:09:40;10.30;99.90
2407;DHT22;37709;53.480;9.688;2024-02-14T11:12:11;10.40;99.90
2407;DHT22;37709;53.480;9.688;2024-02-14T11:14:44;10.50;99.90
2407;DHT22;37709;53.480;9.688;2024-02-14T11:17:13;10.70;99.90
2407;DHT22;37709;53.480;9.688;2024-02-14T11:19:40;10.60;99.90
2407;DHT22;37709;53.480;9.688;2024-02-14T11:22:13;10.60;99.90
2407;DHT22;37709;53.480;9.688;2024-02-14T11:24:40;10.60;99.90
2407;DHT22;37709;53.480;9.688;2024-02-14T11:27:12;10.50;99.90
2407;DHT22;37709;53.480;9.688;2024-02-14T11:30:00;10.60;99.90
2407;DHT22;37709;53.480;9.688;2024-02-14T11:32:31;10.80;99.90
2407;DHT22;37709;53.480;9.688;2024-02-14T11:35:01;10.80;99.90
2407;DHT22;37709;53.480;9.688;2024-02-14T11:37:30;10.70;99.90
2407;DHT22;37709;53.480;9.688;2024-02-14T11:39:59;10.80;99.90
2407;DHT22;37709;53.480;9.688;2024-02-14T11:42:30;10.70;99.90
2407;DHT22;37709;53.480;9.688;2024-02-14T11:44:58;10.70;99.90
2407;DHT22;37709;53.480;9.688;2024-02-14T11:47:25;10.70;99.90
2407;DHT22;37709;53.480;9.688;2024-02-14T11:49:53;10.70;99.90
2407;DHT22;37709;53.480;9.688;2024-02-14T11:52:22;10.80;99.90
2407;DHT22;37709;53.480;9.688;2024-02-14T11:54:50;10.80;99.90
2407;DHT22;37709;53.480;9.688;2024-02-14T11:57:21;11.00;99.90
2407;DHT22;37709;53.480;9.688;2024-02-14T11:59:49;11.00;99.90
2407;DHT22;37709;53.480;9.688;2024-02-14T12:02:21;10.90;99.90
2407;DHT22;37709;53.480;9.688;2024-02-14T12:04:49;10.90;99.90
2407;DHT22;37709;53.480;9.688;2024-02-14T12:07:18;11.00;99.90
2407;DHT22;37709;53.480;9.688;2024-02-14T12:09:46;10.90;99.90
2407;DHT22;37709;53.480;9.688;2024-02-14T12:12:15;10.90;99.90
2407;DHT22;37709;53.480;9.688;2024-02-14T12:14:46;10.90;99.90
2407;DHT22;37709;53.480;9.688;2024-02-14T12:17:17;10.80;99.90
2407;DHT22;37709;53.480;9.688;2024-02-14T12:19:49;10.70;99.90
2407;DHT22;37709;53.480;9.688;2024-02-14T12:22:18;10.80;99.90
2407;DHT22;37709;53.480;9.688;2024-02-14T12:27:39;10.90;99.90
2407;DHT22;37709;53.480;9.688;2024-02-14T12:30:12;10.80;99.90
2407;DHT22;37709;53.480;9.688;2024-02-14T12:32:39;10.80;99.90
2407;DHT22;37709;53.480;9.688;2024-02-14T12:35:08;10.80;99.90
2407;DHT22;37709;53.480;9.688;2024-02-14T12:37:36;11.00;99.90
2407;DHT22;37709;53.480;9.688;2024-02-14T12:40:05;11.00;99.90
2407;DHT22;37709;53.480;9.688;2024-02-14T12:42:33;10.90;99.90
2407;DHT22;37709;53.480;9.688;2024-02-14T12:45:01;11.10;99.90
2407;DHT22;37709;53.480;9.688;2024-02-14T12:47:28;11.20;99.90
2407;DHT22;37709;53.480;9.688;2024-02-14T12:50:04;11.20;99.90
2407;DHT22;37709;53.480;9.688;2024-02-14T12:52:36;11.30;99.90
2407;DHT22;37709;53.480;9.688;2024-02-14T12:55:09;11.40;99.90
2407;DHT22;37709;53.480;9.688;2024-02-14T12:57:37;11.30;99.90
2407;DHT22;37709;53.480;9.688;2024-02-14T13:00:05;11.40;99.90
2407;DHT22;37709;53.480;9.688;2024-02-14T13:02:36;11.30;99.90
2407;DHT22;37709;53.480;9.688;2024-02-14T13:05:05;11.10;99.90
2407;DHT22;37709;53.480;9.688;2024-02-14T13:07:36;11.00;99.90
2407;DHT22;37709;53.480;9.688;2024-02-14T13:10:03;11.00;99.90
2407;DHT22;37709;53.480;9.688;2024-02-14T13:12:35;10.90;99.90
2407;DHT22;37709;53.480;9.688;2024-02-14T13:15:03;10.90;99.90
2407;DHT22;37709;53.480;9.688;2024-02-14T13:17:33;11.00;99.90
2407;DHT22;37709;53.480;9.688;2024-02-14T13:20:02;11.10;99.90
2407;DHT22;37709;53.480;9.688;2024-02-14T13:22:30;11.00;99.90
2407;DHT22;37709;53.480;9.688;2024-02-14T13:24:57;11.00;99.90
2407;DHT22;37709;53.480;9.688;2024-02-14T13:27:24;10.90;99.90
2407;DHT22;37709;53.480;9.688;2024-02-14T13:29:52;10.90;99.90
2407;DHT22;37709;53.480;9.688;2024-02-14T13:32:20;10.90;99.90
2407;DHT22;37709;53.480;9.688;2024-02-14T13:34:47;11.00;99.90
2407;DHT22;37709;53.480;9.688;2024-02-14T13:37:15;11.10;99.90
2407;DHT22;37709;53.480;9.688;2024-02-14T13:39:43;11.40;99.90
2407;DHT22;37709;53.480;9.688;2024-02-14T13:42:11;11.40;99.90
2407;DHT22;37709;53.480;9.688;2024-02-14T13:44:38;11.40;99.90
2407;DHT22;37709;53.480;9.688;2024-02-14T13:47:06;11.60;99.90
2407;DHT22;37709;53.480;9.688;2024-02-14T13:49:33;11.70;99.90
2407;DHT22;37709;53.480;9.688;2024-02-14T13:52:01;11.70;99.90
2407;DHT22;37709;53.480;9.688;2024-02-14T13:54:28;11.50;99.90
2407;DHT22;37709;53.480;9.688;2024-02-14T13:56:56;11.20;99.90
2407;DHT22;37709;53.480;9.688;2024-02-14T13:59:24;11.10;99.90
2407;DHT22;37709;53.480;9.688;2024-02-14T14:01:52;11.00;99.90
2407;DHT22;37709;53.480;9.688;2024-02-14T14:04:23;11.00;99.90
2407;DHT22;37709;53.480;9.688;2024-02-14T14:06:53;11.00;99.90
2407;DHT22;37709;53.480;9.688;2024-02-14T14:09:23;11.00;99.90
2407;DHT22;37709;53.480;9.688;2024-02-14T14:11:50;10.90;99.90
2407;DHT22;37709;53.480;9.688;2024-02-14T14:14:20;10.80;99.90
2407;DHT22;37709;53.480;9.688;2024-02-14T14:16:49;10.80;99.90
2407;DHT22;37709;53.480;9.688;2024-02-14T14:19:17;10.90;99.90
2407;DHT22;37709;53.480;9.688;2024-02-14T14:21:46;10.90;99.90
2407;DHT22;37709;53.480;9.688;2024-02-14T14:24:13;10.90;99.90
2407;DHT22;37709;53.480;9.688;2024-02-14T14:26:40;10.90;99.90
2407;DHT22;37709;53.480;9.688;2024-02-14T14:29:09;11.00;99.90
2407;DHT22;37709;53.480;9.688;2024-02-14T14:31:36;11.00;99.90
2407;DHT22;37709;53.480;9.688;2024-02-14T14:34:03;11.00;99.90
2407;DHT22;37709;53.480;9.688;2024-02-14T14:36:31;10.90;99.90
2407;DHT22;37709;53.480;9.688;2024-02-14T14:38:59;10.90;99.90
2407;DHT22;37709;53.480;9.688;2024-02-14T14:41:27;10.90;99.90
2407;DHT22;37709;53.480;9.688;2024-02-14T14:43:55;10.80;99.90
2407;DHT22;37709;53.480;9.688;2024-02-14T14:46:23;10.70;99.90
2407;DHT22;37709;53.480;9.688;2024-02-14T14:48:51;10.80;99.90
2407;DHT22;37709;53.480;9.688;2024-02-14T14:51:19;10.70;99.90
2407;DHT22;37709;53.480;9.688;2024-02-14T14:53:47;10.70;99.90
2407;DHT22;37709;53.480;9.688;2024-02-14T14:56:14;10.70;99.90
2407;DHT22;37709;53.480;9.688;2024-02-14T14:58:41;10.70;99.90
2407;DHT22;37709;53.480;9.688;2024-02-14T15:01:09;10.70;99.90
2407;DHT22;37709;53.480;9.688;2024-02-14T15:03:37;10.70;99.90
2407;DHT22;37709;53.480;9.688;2024-02-14T15:06:04;10.70;99.90
2407;DHT22;37709;53.480;9.688;2024-02-14T15:08:32;10.70;99.90
2407;DHT22;37709;53.480;9.688;2024-02-14T15:11:00;10.70;99.90
2407;DHT22;37709;53.480;9.688;2024-02-14T15:13:27;10.70;99.90
2407;DHT22;37709;53.480;9.688;2024-02-14T15:15:55;10.70;99.90
2407;DHT22;37709;53.480;9.688;2024-02-14T15:18:24;10.70;99.90
2407;DHT22;37709;53.480;9.688;2024-02-14T15:20:52;10.70;99.90
2407;DHT22;37709;53.480;9.688;2024-02-14T15:23:19;10.60;99.90
2407;DHT22;37709;53.480;9.688;2024-02-14T15:25:46;10.60;99.90
2407;DHT22;37709;53.480;9.688;2024-02-14T15:28:14;10.60;99.90
2407;DHT22;37709;53.480;9.688;2024-02-14T15:30:49;10.60;99.90
2407;DHT22;37709;53.480;9.688;2024-02-14T15:33:35;10.60;99.90
2407;DHT22;37709;53.480;9.688;2024-02-14T15:36:03;10.50;99.90
2407;DHT22;37709;53.480;9.688;2024-02-14T15:38:30;10.60;99.90
2407;DHT22;37709;53.480;9.688;2024-02-14T15:41:23;10.50;99.90
2407;DHT22;37709;53.480;9.688;2024-02-14T15:43:51;10.50;99.90
2407;DHT22;37709;53.480;9.688;2024-02-14T15:46:19;10.50;99.90
2407;DHT22;37709;53.480;9.688;2024-02-14T15:48:46;10.50;99.90
2407;DHT22;37709;53.480;9.688;2024-02-14T15:51:14;10.50;99.90
2407;DHT22;37709;53.480;9.688;2024-02-14T15:53:43;10.50;99.90
2407;DHT22;37709;53.480;9.688;2024-02-14T15:56:14;10.50;99.90
2407;DHT22;37709;53.480;9.688;2024-02-14T15:58:42;10.50;99.90
2407;DHT22;37709;53.480;9.688;2024-02-14T16:01:09;10.50;99.90
2407;DHT22;37709;53.480;9.688;2024-02-14T16:03:37;10.50;99.90
2407;DHT22;37709;53.480;9.688;2024-02-14T16:06:04;10.50;99.90
2407;DHT22;37709;53.480;9.688;2024-02-14T16:08:32;10.40;99.90
2407;DHT22;37709;53.480;9.688;2024-02-14T16:11:00;10.40;99.90
2407;DHT22;37709;53.480;9.688;2024-02-14T16:13:28;10.40;99.90
2407;DHT22;37709;53.480;9.688;2024-02-14T16:15:56;10.40;99.90
2407;DHT22;37709;53.480;9.688;2024-02-14T16:18:24;10.40;99.90